Time;durP1;ratioP1;P1;durP2;ratioP2;P2;SDS_P1;SDS_P2;PMS_P1;PMS_P2;Temp;Humidity;BMP_temperature;BMP_pressure;BME280_temperature;BME280_humidity;BME280_pressure;Samples;Min_cycle;Max_cycle;Signal;HPM_P1;HPM_P2
2022/08/30 00:03:13;;;;;;;9.33;6.83;;;17.80;99.90;;;;;;5033813;28;20407;-78
2022/08/30 00:05:40;;;;;;;11.53;6.57;;;17.80;99.90;;;;;;5036175;28;20488;-81
2022/08/30 00:08:06;;;;;;;12.60;6.97;;;17.70;99.90;;;;;;5033079;28;20841;-81
2022/08/30 00:10:32;;;;;;;8.60;7.50;;;17.70;99.90;;;;;;5017207;28;20452;-80
2022/08/30 00:12:58;;;;;;;9.10;8.10;;;17.70;99.90;;;;;;5032959;28;20921;-80
2022/08/30 00:15:25;;;;;;;16.33;7.63;;;17.70;99.90;;;;;;5034678;28;20498;-79
2022/08/30 00:17:51;;;;;;;9.27;7.30;;;17.70;99.90;;;;;;5034731;28;20465;-80
2022/08/30 00:20:22;;;;;;;9.50;6.87;;;17.70;99.90;;;;;;5033689;28;20435;-79
2022/08/30 00:22:48;;;;;;;11.70;8.47;;;17.70;99.90;;;;;;5034237;28;20419;-80
2022/08/30 00:25:14;;;;;;;11.63;8.70;;;17.70;99.90;;;;;;5032422;28;20602;-78
2022/08/30 00:27:40;;;;;;;12.40;7.90;;;17.70;99.90;;;;;;5033525;28;20191;-79
2022/08/30 00:30:07;;;;;;;11.67;7.83;;;17.60;99.90;;;;;;5032355;28;20509;-79
2022/08/30 00:32:33;;;;;;;10.27;7.97;;;17.50;99.90;;;;;;5015146;28;20477;-79
2022/08/30 00:34:59;;;;;;;11.20;7.43;;;17.50;99.90;;;;;;5032532;28;20414;-79
2022/08/30 00:37:25;;;;;;;10.07;8.27;;;17.50;99.90;;;;;;5032630;28;20476;-79
2022/08/30 00:39:50;;;;;;;12.27;8.90;;;17.50;99.90;;;;;;5032377;28;20227;-79
2022/08/30 00:42:19;;;;;;;12.30;8.00;;;17.50;99.90;;;;;;5013254;28;20199;-79
2022/08/30 00:44:46;;;;;;;8.73;7.17;;;17.50;99.90;;;;;;5032385;28;20273;-79
2022/08/30 00:47:12;;;;;;;8.40;7.10;;;17.50;99.90;;;;;;5030995;28;20430;-78
2022/08/30 00:49:42;;;;;;;9.20;8.00;;;17.60;99.90;;;;;;5030947;28;20434;-79
2022/08/30 00:52:08;;;;;;;9.60;8.10;;;17.60;99.90;;;;;;5030883;28;20474;-78
2022/08/30 00:54:36;;;;;;;9.50;7.93;;;17.60;99.90;;;;;;5032129;28;20463;-78
2022/08/30 00:57:03;;;;;;;11.20;8.43;;;17.60;99.90;;;;;;5030830;28;20908;-78
2022/08/30 00:59:30;;;;;;;12.57;7.80;;;17.60;99.90;;;;;;5014374;28;20783;-78
2022/08/30 01:01:55;;;;;;;8.63;7.83;;;17.50;99.90;;;;;;5031445;28;21311;-78
2022/08/30 01:04:24;;;;;;;11.13;7.70;;;17.40;99.90;;;;;;5033162;28;20561;-80
2022/08/30 01:06:51;;;;;;;9.37;7.67;;;17.40;99.90;;;;;;5032778;28;20190;-77
2022/08/30 01:09:17;;;;;;;15.73;7.90;;;17.40;99.90;;;;;;5032256;28;20488;-79
2022/08/30 01:11:44;;;;;;;11.50;8.13;;;17.40;99.90;;;;;;5030673;28;20989;-79
2022/08/30 01:14:11;;;;;;;13.40;8.07;;;17.30;99.90;;;;;;5030851;28;20257;-80
2022/08/30 01:16:38;;;;;;;12.30;8.10;;;17.20;99.90;;;;;;5030664;28;20455;-79
2022/08/30 01:19:13;;;;;;;15.93;8.93;;;17.20;99.90;;;;;;5030806;28;20412;-79
2022/08/30 01:21:49;;;;;;;11.27;8.30;;;17.20;99.90;;;;;;5032164;28;20428;-79
2022/08/30 01:24:16;;;;;;;10.80;8.27;;;17.20;99.90;;;;;;5032050;28;20415;-78
2022/08/30 01:26:42;;;;;;;11.33;8.23;;;17.30;99.90;;;;;;5032017;28;20449;-80
2022/08/30 01:29:12;;;;;;;13.90;7.80;;;17.20;99.90;;;;;;5014029;28;20938;-79
2022/08/30 01:31:37;;;;;;;12.27;8.43;;;17.20;99.90;;;;;;5031630;28;20234;-80
2022/08/30 01:34:06;;;;;;;10.07;7.77;;;17.20;99.90;;;;;;5032286;28;20997;-79
2022/08/30 01:36:34;;;;;;;17.63;7.97;;;17.10;99.90;;;;;;5031055;28;20186;-80
2022/08/30 01:39:00;;;;;;;10.50;8.60;;;17.10;99.90;;;;;;5031142;28;20449;-80
2022/08/30 01:41:29;;;;;;;10.73;8.97;;;17.10;99.90;;;;;;5030919;28;20978;-80
2022/08/30 01:43:57;;;;;;;11.60;9.00;;;17.10;99.90;;;;;;5031063;28;20872;-80
2022/08/30 01:46:26;;;;;;;12.60;9.73;;;16.80;99.90;;;;;;5014534;28;20814;-80
2022/08/30 01:48:54;;;;;;;11.40;7.90;;;16.80;99.90;;;;;;5014381;28;20438;-81
2022/08/30 01:51:25;;;;;;;9.40;8.40;;;16.80;99.90;;;;;;5032048;28;20482;-80
2022/08/30 01:53:51;;;;;;;11.90;8.73;;;16.70;99.90;;;;;;5030463;28;20403;-79
2022/08/30 01:56:16;;;;;;;16.87;8.27;;;16.80;99.90;;;;;;5030677;28;20411;-79
2022/08/30 01:58:43;;;;;;;12.97;8.90;;;16.70;99.90;;;;;;5030457;28;20464;-79
2022/08/30 02:01:11;;;;;;;11.37;7.80;;;16.70;99.90;;;;;;5013486;28;20439;-79
2022/08/30 02:03:38;;;;;;;14.60;8.13;;;16.60;99.90;;;;;;5030065;28;20474;-79
2022/08/30 02:06:06;;;;;;;12.53;8.10;;;16.70;99.90;;;;;;5013805;28;20487;-78
2022/08/30 02:08:32;;;;;;;13.13;8.50;;;16.60;99.90;;;;;;5030401;28;20425;-79
2022/08/30 02:10:58;;;;;;;13.13;8.70;;;16.40;99.90;;;;;;5030142;28;20519;-79
2022/08/30 02:13:25;;;;;;;15.13;9.60;;;16.30;99.90;;;;;;5029961;28;20195;-79
2022/08/30 02:15:53;;;;;;;10.33;8.80;;;16.20;99.90;;;;;;5031123;28;20499;-79
2022/08/30 02:18:19;;;;;;;13.17;8.70;;;16.20;99.90;;;;;;5030883;28;20415;-79
2022/08/30 02:20:45;;;;;;;12.53;8.67;;;16.30;99.90;;;;;;5030464;28;20434;-79
2022/08/30 02:23:10;;;;;;;11.00;8.70;;;16.30;99.90;;;;;;5012749;28;20480;-79
2022/08/30 02:25:36;;;;;;;12.07;8.50;;;16.40;99.90;;;;;;5030420;28;20200;-79
2022/08/30 02:28:04;;;;;;;12.90;8.63;;;16.50;99.90;;;;;;5029040;28;20192;-80
2022/08/30 02:30:30;;;;;;;8.70;7.33;;;16.50;99.90;;;;;;5028876;28;20214;-79
2022/08/30 02:32:56;;;;;;;11.40;8.33;;;16.50;99.90;;;;;;5012453;28;20998;-79
2022/08/30 02:35:21;;;;;;;12.87;8.80;;;16.50;99.90;;;;;;5012194;28;20437;-80
2022/08/30 02:37:47;;;;;;;14.20;9.43;;;16.40;99.90;;;;;;5028583;28;20466;-80
2022/08/30 02:40:13;;;;;;;17.13;9.33;;;16.40;99.90;;;;;;5012289;28;20205;-78
2022/08/30 02:42:40;;;;;;;9.37;8.37;;;16.40;99.90;;;;;;5029819;28;20175;-78
2022/08/30 02:45:07;;;;;;;12.53;9.00;;;16.40;99.90;;;;;;5028204;28;20856;-78
2022/08/30 02:47:32;;;;;;;13.73;10.20;;;16.40;99.90;;;;;;5011844;28;20451;-79
2022/08/30 02:49:58;;;;;;;12.23;9.47;;;16.40;99.90;;;;;;5011976;28;20958;-78
2022/08/30 02:52:24;;;;;;;13.37;8.57;;;16.40;99.90;;;;;;5029805;28;20691;-79
2022/08/30 02:54:49;;;;;;;9.40;8.40;;;16.40;99.90;;;;;;5030885;28;20190;-78
2022/08/30 02:57:15;;;;;;;10.87;8.10;;;16.30;99.90;;;;;;5028906;28;20194;-78
2022/08/30 02:59:43;;;;;;;10.70;8.70;;;16.30;99.90;;;;;;5029876;28;20332;-78
2022/08/30 03:02:12;;;;;;;19.57;9.33;;;16.30;99.90;;;;;;4996072;28;20679;-78
2022/08/30 03:04:38;;;;;;;11.00;8.10;;;16.20;99.90;;;;;;5028318;28;20426;-79
2022/08/30 03:07:07;;;;;;;12.80;9.67;;;16.20;99.90;;;;;;5027846;28;20413;-78
2022/08/30 03:09:34;;;;;;;11.00;8.70;;;16.20;99.90;;;;;;5012065;28;20929;-78
2022/08/30 03:11:59;;;;;;;12.37;9.17;;;16.20;99.90;;;;;;5027860;28;20473;-78
2022/08/30 03:14:25;;;;;;;13.07;9.87;;;16.20;99.90;;;;;;5029642;28;20898;-79
2022/08/30 03:16:51;;;;;;;11.03;9.43;;;16.20;99.90;;;;;;5029579;28;20547;-79
2022/08/30 03:19:18;;;;;;;12.57;9.77;;;16.10;99.90;;;;;;5011760;28;20656;-78
2022/08/30 03:21:43;;;;;;;9.67;8.67;;;16.10;99.90;;;;;;5029708;28;20198;-79
2022/08/30 03:24:09;;;;;;;12.83;9.67;;;16.00;99.90;;;;;;5011616;28;20434;-79
2022/08/30 03:26:35;;;;;;;11.93;9.47;;;16.00;99.90;;;;;;5027832;28;20468;-79
2022/08/30 03:29:01;;;;;;;16.43;9.90;;;16.00;99.90;;;;;;5028842;28;20179;-80
2022/08/30 03:31:28;;;;;;;15.20;9.00;;;16.00;99.90;;;;;;5011167;28;20249;-78
2022/08/30 03:33:53;;;;;;;11.10;8.53;;;16.00;99.90;;;;;;5029042;28;20446;-79
2022/08/30 03:36:20;;;;;;;11.93;8.93;;;16.00;99.90;;;;;;5027662;28;20445;-78
2022/08/30 03:38:46;;;;;;;15.50;8.50;;;15.80;99.90;;;;;;5029133;28;20178;-78
2022/08/30 03:41:11;;;;;;;15.97;10.03;;;15.80;99.90;;;;;;5027241;28;20457;-80
2022/08/30 03:43:37;;;;;;;12.77;9.50;;;15.70;99.90;;;;;;5028851;28;20214;-78
2022/08/30 03:46:03;;;;;;;13.20;9.17;;;15.50;99.90;;;;;;5029044;28;20473;-78
2022/08/30 03:48:29;;;;;;;11.70;8.93;;;15.60;99.90;;;;;;5028971;28;20195;-78
2022/08/30 03:50:55;;;;;;;12.20;9.40;;;15.70;99.90;;;;;;5027410;28;20543;-80
2022/08/30 03:53:21;;;;;;;12.30;9.33;;;15.70;99.90;;;;;;5027206;28;20527;-79
2022/08/30 03:55:47;;;;;;;14.00;8.23;;;15.60;99.90;;;;;;5010840;28;20214;-79
2022/08/30 03:58:12;;;;;;;12.57;9.77;;;15.70;99.90;;;;;;4994559;28;20442;-80
2022/08/30 04:00:38;;;;;;;18.63;8.67;;;15.70;99.90;;;;;;5027017;28;20283;-80
2022/08/30 04:03:04;;;;;;;17.53;9.20;;;15.70;99.90;;;;;;5028747;28;20194;-79
2022/08/30 04:05:30;;;;;;;12.00;8.80;;;15.80;99.90;;;;;;5028437;28;20191;-78
2022/08/30 04:07:55;;;;;;;13.40;9.27;;;15.70;99.90;;;;;;5027103;28;20425;-78
2022/08/30 04:10:21;;;;;;;12.57;9.57;;;15.70;99.90;;;;;;5027037;28;20229;-79
2022/08/30 04:12:49;;;;;;;12.23;9.07;;;15.70;99.90;;;;;;5026715;28;20261;-79
2022/08/30 04:15:17;;;;;;;13.90;9.80;;;15.70;99.90;;;;;;5028550;28;20420;-79
2022/08/30 04:17:43;;;;;;;10.77;8.70;;;15.70;99.90;;;;;;5030595;28;20420;-79
2022/08/30 04:20:09;;;;;;;14.40;9.40;;;15.70;99.90;;;;;;5030505;28;20441;-79
2022/08/30 04:22:35;;;;;;;11.50;9.03;;;15.70;99.90;;;;;;5014179;28;20198;-79
2022/08/30 04:25:02;;;;;;;11.03;9.47;;;15.70;99.90;;;;;;5014284;28;20804;-79
2022/08/30 04:27:28;;;;;;;11.97;10.00;;;15.70;99.90;;;;;;5013892;28;21001;-79
2022/08/30 04:29:54;;;;;;;13.30;9.70;;;15.70;99.90;;;;;;5030133;28;20579;-79
2022/08/30 04:32:20;;;;;;;13.00;10.80;;;15.70;99.90;;;;;;5013727;28;20720;-79
2022/08/30 04:34:46;;;;;;;16.53;9.67;;;15.70;99.90;;;;;;5030209;28;20420;-79
2022/08/30 04:37:12;;;;;;;13.50;9.93;;;15.70;99.90;;;;;;5030133;28;20437;-79
2022/08/30 04:39:38;;;;;;;15.93;10.37;;;15.70;99.90;;;;;;5013600;28;20193;-79
2022/08/30 04:42:04;;;;;;;11.60;10.23;;;15.60;99.90;;;;;;5030100;28;20929;-79
2022/08/30 04:44:30;;;;;;;14.07;9.70;;;15.40;99.90;;;;;;5014310;28;20486;-80
2022/08/30 04:46:56;;;;;;;11.00;9.90;;;15.20;99.90;;;;;;5032628;28;20190;-78
2022/08/30 04:49:22;;;;;;;10.43;9.33;;;15.30;99.90;;;;;;5030068;28;20436;-79
2022/08/30 04:51:48;;;;;;;11.83;9.50;;;15.40;99.90;;;;;;5013612;28;20757;-80
2022/08/30 04:54:13;;;;;;;14.03;9.57;;;15.50;99.90;;;;;;5013784;28;20195;-79
2022/08/30 04:56:39;;;;;;;12.57;9.20;;;15.60;99.90;;;;;;5029907;28;20285;-77
2022/08/30 04:59:05;;;;;;;11.33;10.13;;;15.60;99.90;;;;;;5013331;28;20186;-78
2022/08/30 05:01:32;;;;;;;13.33;10.60;;;15.50;99.90;;;;;;5030354;28;20205;-78
2022/08/30 05:03:58;;;;;;;18.70;12.50;;;15.50;99.90;;;;;;5029799;28;20446;-79
2022/08/30 05:06:29;;;;;;;14.70;11.60;;;15.60;99.90;;;;;;5031277;28;20471;-78
2022/08/30 05:08:56;;;;;;;14.97;10.17;;;15.70;99.90;;;;;;5031409;28;20436;-79
2022/08/30 05:11:23;;;;;;;17.17;11.30;;;15.80;99.90;;;;;;5030571;28;20519;-78
2022/08/30 05:13:48;;;;;;;13.00;11.60;;;15.80;99.90;;;;;;5030067;28;20448;-78
2022/08/30 05:16:16;;;;;;;13.50;11.57;;;15.90;99.90;;;;;;5030528;28;20424;-78
2022/08/30 05:18:43;;;;;;;16.23;10.43;;;15.90;99.90;;;;;;5012688;28;20269;-79
2022/08/30 05:21:16;;;;;;;14.63;11.40;;;15.90;99.90;;;;;;5031031;28;20439;-80
2022/08/30 05:23:42;;;;;;;14.60;11.07;;;16.00;99.90;;;;;;5030033;28;20870;-80
2022/08/30 05:26:11;;;;;;;14.80;10.73;;;16.00;99.90;;;;;;5032334;28;20469;-80
2022/08/30 05:28:37;;;;;;;13.43;9.87;;;16.10;99.90;;;;;;5030554;28;20418;-79
2022/08/30 05:31:13;;;;;;;11.87;9.60;;;16.10;99.90;;;;;;5030753;28;20570;-80
2022/08/30 05:33:39;;;;;;;15.37;10.70;;;16.10;99.90;;;;;;5029218;28;20868;-80
2022/08/30 05:36:09;;;;;;;12.40;9.90;;;16.10;99.90;;;;;;5029508;28;20457;-79
2022/08/30 05:38:35;;;;;;;10.67;9.57;;;16.30;99.90;;;;;;5013171;28;20221;-82
2022/08/30 05:41:01;;;;;;;11.73;10.13;;;16.20;99.90;;;;;;5030295;28;20511;-80
2022/08/30 05:43:26;;;;;;;13.07;9.97;;;16.40;99.90;;;;;;5031353;28;20426;-78
2022/08/30 05:46:05;;;;;;;13.33;9.93;;;16.40;99.90;;;;;;5031335;28;20420;-78
2022/08/30 05:48:31;;;;;;;13.53;9.83;;;16.60;99.90;;;;;;5029538;28;20194;-79
2022/08/30 05:51:08;;;;;;;13.30;10.67;;;16.70;99.90;;;;;;5030882;28;20445;-79
2022/08/30 05:53:34;;;;;;;14.03;11.17;;;16.80;99.90;;;;;;5032239;28;20835;-79
2022/08/30 05:56:03;;;;;;;12.90;10.50;;;16.90;99.90;;;;;;5030785;28;20419;-78
2022/08/30 05:58:30;;;;;;;11.20;9.73;;;17.10;99.90;;;;;;5029034;28;20430;-78
2022/08/30 06:00:55;;;;;;;14.03;9.43;;;17.20;99.90;;;;;;5030229;28;20444;-78
2022/08/30 06:03:21;;;;;;;19.20;11.20;;;17.30;99.90;;;;;;5012282;28;20429;-79
2022/08/30 06:05:47;;;;;;;14.23;10.43;;;17.40;99.90;;;;;;5028114;28;20647;-79
2022/08/30 06:08:12;;;;;;;16.33;10.17;;;17.50;99.90;;;;;;5011571;28;20196;-79
2022/08/30 06:10:38;;;;;;;12.70;10.37;;;17.60;99.90;;;;;;5029754;28;20607;-78
2022/08/30 06:13:04;;;;;;;18.83;10.87;;;17.70;99.90;;;;;;5027777;28;20294;-77
2022/08/30 06:15:29;;;;;;;12.20;10.90;;;17.70;99.90;;;;;;5029288;28;20184;-78
2022/08/30 06:17:55;;;;;;;14.57;10.70;;;17.90;99.90;;;;;;5029576;28;20271;-80
2022/08/30 06:20:21;;;;;;;18.90;12.23;;;18.00;99.90;;;;;;5029115;28;20200;-79
2022/08/30 06:22:46;;;;;;;18.67;11.50;;;18.10;99.90;;;;;;5027624;28;20241;-78
2022/08/30 06:25:13;;;;;;;13.90;11.40;;;18.30;99.90;;;;;;5027250;28;20189;-78
2022/08/30 06:27:40;;;;;;;14.97;10.90;;;18.50;99.90;;;;;;5028595;28;20203;-79
2022/08/30 06:30:07;;;;;;;14.07;11.23;;;18.70;99.90;;;;;;5026871;28;21009;-78
2022/08/30 06:32:33;;;;;;;12.53;10.00;;;18.90;99.90;;;;;;5028692;28;20477;-78
2022/08/30 06:34:59;;;;;;;18.13;11.03;;;19.10;99.90;;;;;;5028470;28;20421;-79
2022/08/30 06:37:25;;;;;;;16.17;10.30;;;19.20;99.90;;;;;;5011441;28;20432;-79
2022/08/30 06:39:51;;;;;;;13.00;9.50;;;19.40;99.90;;;;;;5027941;28;20208;-78
2022/08/30 06:42:16;;;;;;;16.60;9.30;;;19.70;99.90;;;;;;5027562;28;20287;-80
2022/08/30 06:44:42;;;;;;;13.97;9.80;;;19.60;99.90;;;;;;5027708;28;20276;-80
2022/08/30 06:47:07;;;;;;;14.53;9.53;;;19.70;99.90;;;;;;5027665;28;20191;-79
2022/08/30 06:49:33;;;;;;;13.00;10.27;;;19.80;99.90;;;;;;5011375;28;20676;-80
2022/08/30 06:51:59;;;;;;;12.43;9.13;;;19.80;99.90;;;;;;5027507;28;20216;-78
2022/08/30 06:54:25;;;;;;;13.13;10.23;;;19.70;99.90;;;;;;5029617;28;20454;-78
2022/08/30 06:56:50;;;;;;;15.80;10.30;;;19.60;99.90;;;;;;5027946;28;20196;-79
2022/08/30 06:59:16;;;;;;;13.17;9.97;;;19.60;99.90;;;;;;5029545;28;20187;-79
2022/08/30 07:01:42;;;;;;;13.83;9.80;;;19.60;99.90;;;;;;5010841;28;20212;-78
2022/08/30 07:04:07;;;;;;;11.17;9.70;;;19.60;99.90;;;;;;5010817;28;20191;-79
2022/08/30 07:06:33;;;;;;;14.67;10.63;;;19.60;99.90;;;;;;5027461;28;20641;-79
2022/08/30 07:08:59;;;;;;;13.53;10.13;;;19.60;99.90;;;;;;5014746;28;20246;-78
2022/08/30 07:11:36;;;;;;;17.93;9.60;;;19.70;99.90;;;;;;5031524;28;20459;-79
2022/08/30 07:14:03;;;;;;;10.97;9.20;;;19.80;99.90;;;;;;5030568;28;20516;-79
2022/08/30 07:16:28;;;;;;;12.63;9.40;;;19.80;99.90;;;;;;5015481;28;20470;-79
2022/08/30 07:18:55;;;;;;;15.50;10.17;;;19.80;99.90;;;;;;5032174;28;20459;-78
2022/08/30 07:21:24;;;;;;;10.57;9.50;;;19.90;99.90;;;;;;5030615;28;20268;-77
2022/08/30 07:23:50;;;;;;;15.03;9.80;;;19.90;99.90;;;;;;5029241;28;20462;-79
2022/08/30 07:26:19;;;;;;;15.07;9.97;;;20.10;99.90;;;;;;5031594;28;20423;-78
2022/08/30 07:28:46;;;;;;;13.17;8.93;;;20.10;99.90;;;;;;5030467;28;20579;-79
2022/08/30 07:31:13;;;;;;;12.97;8.97;;;20.20;99.90;;;;;;5030379;28;20442;-79
2022/08/30 07:33:39;;;;;;;17.30;10.20;;;20.20;99.90;;;;;;5031014;28;20736;-79
2022/08/30 07:36:06;;;;;;;9.43;8.40;;;20.20;99.90;;;;;;5027052;28;20470;-79
2022/08/30 07:38:32;;;;;;;15.70;10.47;;;20.30;99.90;;;;;;5027088;28;20439;-78
2022/08/30 07:41:00;;;;;;;14.20;9.37;;;20.30;99.90;;;;;;5027728;28;20533;-78
2022/08/30 07:43:27;;;;;;;14.90;8.40;;;20.40;99.90;;;;;;5026864;28;20423;-79
2022/08/30 07:45:53;;;;;;;13.10;8.30;;;20.40;99.90;;;;;;5028368;28;20511;-78
2022/08/30 07:48:18;;;;;;;10.60;8.90;;;20.50;99.90;;;;;;5026686;28;20423;-78
2022/08/30 07:50:45;;;;;;;15.07;9.27;;;20.60;99.90;;;;;;5026405;28;20791;-78
2022/08/30 07:53:12;;;;;;;11.70;8.30;;;20.60;99.90;;;;;;5013083;28;20570;-78
2022/08/30 07:55:38;;;;;;;12.60;9.70;;;20.70;99.90;;;;;;5031597;28;20414;-78
2022/08/30 07:58:04;;;;;;;12.73;8.53;;;20.80;99.90;;;;;;5032739;28;20863;-78
2022/08/30 08:00:30;;;;;;;9.13;8.20;;;20.90;99.90;;;;;;5032302;28;20439;-79
2022/08/30 08:02:56;;;;;;;10.20;8.73;;;21.10;99.90;;;;;;5031371;28;20518;-78
2022/08/30 08:05:21;;;;;;;9.87;8.10;;;21.10;99.90;;;;;;5030982;28;20193;-79
2022/08/30 08:07:47;;;;;;;9.87;8.20;;;21.10;99.90;;;;;;5031010;28;20192;-79
2022/08/30 08:10:13;;;;;;;9.60;8.70;;;21.20;99.90;;;;;;5032192;28;20208;-79
2022/08/30 08:12:39;;;;;;;11.97;8.73;;;21.30;99.90;;;;;;5030417;28;20234;-79
2022/08/30 08:15:06;;;;;;;12.17;8.50;;;21.40;99.90;;;;;;5030601;28;20422;-78
2022/08/30 08:17:32;;;;;;;10.93;8.47;;;21.50;99.90;;;;;;5030138;28;20842;-78
2022/08/30 08:19:58;;;;;;;11.77;8.20;;;21.50;99.90;;;;;;5029344;28;20485;-78
2022/08/30 08:22:23;;;;;;;13.93;7.97;;;21.70;99.90;;;;;;5032226;28;20431;-79
2022/08/30 08:24:49;;;;;;;16.17;8.90;;;21.80;99.90;;;;;;5031378;28;20196;-79
2022/08/30 08:27:15;;;;;;;9.50;8.33;;;21.80;99.90;;;;;;5031767;28;20215;-79
2022/08/30 08:29:41;;;;;;;9.87;8.60;;;21.90;99.90;;;;;;5030428;28;20215;-79
2022/08/30 08:32:07;;;;;;;8.47;7.67;;;22.00;99.90;;;;;;5031691;28;20970;-79
2022/08/30 08:34:34;;;;;;;18.00;9.13;;;22.10;99.90;;;;;;5031618;28;20190;-78
2022/08/30 08:37:00;;;;;;;10.17;8.13;;;22.20;99.90;;;;;;5013583;28;20960;-79
2022/08/30 08:39:25;;;;;;;11.93;7.80;;;22.20;99.90;;;;;;5029752;28;20415;-80
2022/08/30 08:42:13;;;;;;;13.87;8.90;;;22.20;99.90;;;;;;5031553;28;20185;-79
2022/08/30 08:44:55;;;;;;;13.20;8.20;;;22.30;99.90;;;;;;5031106;28;20607;-79
2022/08/30 08:47:53;;;;;;;12.20;8.50;;;22.60;99.90;;;;;;5030032;28;20424;-79
2022/08/30 08:50:20;;;;;;;9.53;7.93;;;22.70;99.90;;;;;;5029769;28;20439;-78
2022/08/30 08:55:52;;;;;;;9.57;7.80;;;22.90;99.90;;;;;;5031003;28;20409;-79
2022/08/30 08:58:26;;;;;;;9.77;8.13;;;23.20;99.90;;;;;;5030850;28;20415;-79
2022/08/30 09:00:55;;;;;;;9.00;7.43;;;23.30;99.90;;;;;;5029772;28;20432;-80
2022/08/30 09:03:23;;;;;;;10.10;7.60;;;23.50;99.90;;;;;;5012123;28;20506;-79
2022/08/30 09:05:49;;;;;;;10.10;8.13;;;23.60;99.90;;;;;;5030768;28;20487;-79
2022/08/30 09:08:18;;;;;;;8.57;7.13;;;24.00;99.90;;;;;;5029742;28;20435;-77
2022/08/30 09:11:05;;;;;;;11.50;7.30;;;24.20;99.90;;;;;;5030592;28;20446;-78
2022/08/30 09:13:32;;;;;;;11.40;8.47;;;24.40;99.90;;;;;;5029112;28;20452;-81
2022/08/30 09:15:58;;;;;;;12.00;8.20;;;24.60;99.90;;;;;;5029263;28;20443;-79
2022/08/30 09:18:46;;;;;;;8.57;6.87;;;24.80;99.90;;;;;;5030924;28;20784;-79
2022/08/30 09:21:13;;;;;;;10.23;7.33;;;25.10;99.90;;;;;;5030645;28;20461;-79
2022/08/30 09:23:55;;;;;;;18.10;8.20;;;25.40;99.90;;;;;;5030305;28;20426;-79
2022/08/30 09:26:30;;;;;;;9.90;7.37;;;25.70;99.90;;;;;;5028893;28;20427;-80
2022/08/30 09:28:57;;;;;;;9.00;7.20;;;26.10;99.90;;;;;;5030044;28;20407;-79
2022/08/30 09:31:28;;;;;;;12.47;7.60;;;26.50;99.90;;;;;;5028935;28;20439;-80
2022/08/30 09:34:02;;;;;;;9.27;6.30;;;26.80;99.90;;;;;;5030163;28;20411;-79
2022/08/30 09:36:41;;;;;;;10.10;7.13;;;27.20;99.90;;;;;;5029108;28;20419;-79
2022/08/30 09:39:16;;;;;;;12.53;6.50;;;27.50;99.90;;;;;;5030378;28;20415;-79
2022/08/30 09:41:44;;;;;;;8.77;6.40;;;27.80;99.90;;;;;;5028683;28;20446;-79
2022/08/30 09:44:23;;;;;;;7.10;6.40;;;28.00;99.90;;;;;;5030912;28;20474;-79
2022/08/30 09:47:00;;;;;;;8.17;5.90;;;28.30;99.90;;;;;;5031293;28;20434;-79
2022/08/30 09:49:33;;;;;;;8.63;5.27;;;28.60;99.90;;;;;;5031053;28;20430;-79
2022/08/30 09:52:07;;;;;;;10.37;6.23;;;29.00;99.90;;;;;;5030766;28;20462;-79
2022/08/30 09:54:43;;;;;;;9.53;7.03;;;29.30;98.30;;;;;;5030824;28;20446;-79
2022/08/30 09:57:20;;;;;;;12.70;6.37;;;29.50;96.90;;;;;;5030390;28;20403;-79
2022/08/30 10:00:14;;;;;;;7.23;6.53;;;29.80;96.30;;;;;;5029712;28;20446;-79
2022/08/30 10:02:57;;;;;;;11.67;6.63;;;29.90;96.10;;;;;;5027679;28;20434;-79
2022/08/30 10:05:42;;;;;;;8.50;6.97;;;30.10;94.40;;;;;;5028849;28;20486;-78
2022/08/30 10:08:13;;;;;;;6.30;5.70;;;30.30;93.20;;;;;;5029562;28;20534;-77
2022/08/30 10:11:03;;;;;;;7.23;5.53;;;30.40;91.70;;;;;;5027975;28;20459;-78
2022/08/30 10:13:38;;;;;;;12.93;6.70;;;30.60;91.90;;;;;;5030660;28;20471;-80
2022/08/30 10:16:14;;;;;;;5.60;4.60;;;30.80;91.00;;;;;;5029804;28;20448;-78
2022/08/30 10:18:58;;;;;;;9.93;5.30;;;30.80;89.60;;;;;;5031348;28;20423;-80
2022/08/30 10:21:34;;;;;;;5.13;4.80;;;31.10;89.40;;;;;;5030926;28;20524;-80
2022/08/30 10:24:11;;;;;;;5.67;4.93;;;31.30;86.60;;;;;;5028681;28;20432;-78
2022/08/30 10:27:06;;;;;;;8.50;5.63;;;31.40;84.20;;;;;;5030840;28;20418;-79
2022/08/30 10:29:41;;;;;;;7.50;5.07;;;31.60;84.20;;;;;;5030416;28;20416;-79
2022/08/30 10:32:34;;;;;;;5.37;4.67;;;31.80;81.50;;;;;;5028904;28;20475;-79
2022/08/30 10:35:08;;;;;;;5.63;5.13;;;32.00;81.70;;;;;;5029178;28;20442;-78
2022/08/30 10:37:39;;;;;;;6.60;5.70;;;32.10;79.60;;;;;;5029084;28;20506;-80
2022/08/30 10:43:03;;;;;;;4.30;3.90;;;32.30;74.70;;;;;;5029875;28;20510;-79
2022/08/30 10:45:34;;;;;;;5.00;3.80;;;32.20;71.50;;;;;;5029480;28;20458;-80
2022/08/30 10:48:40;;;;;;;4.00;3.70;;;32.40;68.80;;;;;;5029825;28;21035;-80
2022/08/30 10:51:15;;;;;;;4.83;4.37;;;32.10;70.20;;;;;;5006220;28;21018;-78
2022/08/30 10:53:49;;;;;;;5.63;3.80;;;31.70;66.60;;;;;;5029352;28;20414;-80
2022/08/30 10:56:23;;;;;;;4.50;4.10;;;31.60;65.20;;;;;;5027949;28;20990;-80
2022/08/30 10:58:49;;;;;;;5.93;4.00;;;31.50;68.30;;;;;;5027453;28;20420;-78
2022/08/30 11:01:20;;;;;;;6.83;4.17;;;31.10;66.60;;;;;;5011742;28;20438;-79
2022/08/30 11:03:58;;;;;;;5.47;4.20;;;30.70;68.50;;;;;;5028502;28;20415;-78
2022/08/30 11:06:39;;;;;;;4.93;4.43;;;30.90;70.90;;;;;;5030412;28;20407;-80
2022/08/30 11:09:16;;;;;;;4.97;3.97;;;31.00;70.00;;;;;;5028862;28;20419;-77
2022/08/30 11:12:15;;;;;;;5.70;5.20;;;30.90;68.30;;;;;;5030172;28;20462;-77
2022/08/30 11:14:43;;;;;;;5.20;4.00;;;30.40;72.50;;;;;;5030085;28;20786;-77
2022/08/30 11:17:21;;;;;;;7.30;4.53;;;29.70;68.60;;;;;;5029387;28;20415;-77
2022/08/30 11:19:47;;;;;;;5.17;4.13;;;29.00;73.50;;;;;;5029226;28;20427;-80
2022/08/30 11:22:21;;;;;;;6.37;4.50;;;28.50;74.80;;;;;;5029243;28;21019;-78
2022/08/30 11:25:10;;;;;;;6.07;4.50;;;28.90;73.50;;;;;;5027918;28;20429;-81
2022/08/30 11:27:55;;;;;;;4.80;4.40;;;29.20;72.80;;;;;;5027072;28;20950;-77
2022/08/30 11:30:23;;;;;;;6.10;4.50;;;29.00;74.50;;;;;;5028751;28;20473;-77
2022/08/30 11:33:24;;;;;;;4.87;4.47;;;28.70;74.20;;;;;;5028964;28;20471;-78
2022/08/30 11:35:52;;;;;;;4.43;4.03;;;28.80;75.80;;;;;;5028901;28;20419;-78
2022/08/30 11:38:37;;;;;;;4.97;4.60;;;29.00;76.40;;;;;;5027591;28;20423;-78
2022/08/30 11:41:08;;;;;;;5.13;4.40;;;29.20;76.50;;;;;;5028202;28;20470;-79
2022/08/30 11:43:34;;;;;;;6.40;4.30;;;29.00;74.10;;;;;;5028936;28;20834;-78
2022/08/30 11:46:25;;;;;;;5.20;4.60;;;29.00;73.40;;;;;;5028540;28;20419;-77
2022/08/30 11:48:53;;;;;;;6.80;4.80;;;29.10;75.10;;;;;;5028520;28;20184;-78
2022/08/30 11:51:34;;;;;;;9.60;4.23;;;28.90;74.80;;;;;;5026348;28;20883;-77
2022/08/30 11:54:18;;;;;;;8.30;4.60;;;28.80;75.40;;;;;;5026385;28;20426;-77
2022/08/30 11:57:02;;;;;;;5.17;4.77;;;28.50;78.10;;;;;;5027737;28;20411;-78
2022/08/30 11:59:53;;;;;;;5.10;4.60;;;28.60;76.20;;;;;;5028170;28;20449;-77
2022/08/30 12:02:49;;;;;;;4.33;4.03;;;28.70;77.80;;;;;;5027877;28;20411;-77
2022/08/30 12:05:45;;;;;;;4.97;4.50;;;28.60;76.20;;;;;;5027092;28;20435;-78
2022/08/30 12:08:35;;;;;;;5.03;4.63;;;28.70;74.20;;;;;;5027005;28;20435;-77
2022/08/30 12:11:13;;;;;;;5.83;5.20;;;28.70;76.20;;;;;;5028356;28;20916;-76
2022/08/30 12:13:41;;;;;;;4.47;4.03;;;28.50;79.30;;;;;;5028395;28;20444;-77
2022/08/30 12:16:20;;;;;;;4.90;4.40;;;28.40;75.70;;;;;;5028744;28;20505;-78
2022/08/30 12:18:49;;;;;;;4.70;3.87;;;28.50;76.50;;;;;;5010923;28;20427;-78
2022/08/30 12:21:20;;;;;;;5.57;4.43;;;28.60;75.90;;;;;;5028887;28;20516;-79
2022/08/30 12:24:12;;;;;;;5.77;5.17;;;28.70;77.40;;;;;;5026537;28;20419;-79
2022/08/30 12:26:44;;;;;;;6.23;4.33;;;28.60;78.00;;;;;;5028506;28;20419;-77
2022/08/30 12:29:17;;;;;;;6.90;4.40;;;28.40;72.50;;;;;;5026947;28;20412;-76
2022/08/30 12:31:52;;;;;;;5.40;4.47;;;28.50;77.70;;;;;;5028257;28;20875;-80
2022/08/30 12:34:32;;;;;;;5.30;4.80;;;28.50;75.40;;;;;;5026791;28;20422;-79
2022/08/30 12:37:06;;;;;;;4.53;3.97;;;28.90;76.90;;;;;;5026761;28;20985;-79
2022/08/30 12:39:42;;;;;;;4.63;4.20;;;29.10;76.50;;;;;;5031398;28;20415;-77
2022/08/30 12:42:24;;;;;;;4.73;3.90;;;29.30;73.90;;;;;;5030372;28;20520;-78
2022/08/30 12:44:52;;;;;;;6.77;4.87;;;29.70;75.40;;;;;;5032018;28;20415;-79
2022/08/30 12:47:24;;;;;;;4.83;4.40;;;30.00;72.10;;;;;;5032051;28;20434;-77
2022/08/30 12:49:51;;;;;;;4.63;4.23;;;30.20;72.40;;;;;;5031363;28;20436;-78
2022/08/30 12:52:24;;;;;;;9.60;4.10;;;30.50;70.50;;;;;;5029691;28;20625;-80
2022/08/30 12:54:50;;;;;;;7.07;4.83;;;30.70;70.20;;;;;;5032069;28;20415;-80
2022/08/30 12:57:37;;;;;;;7.17;4.50;;;30.90;71.70;;;;;;5031651;28;20423;-77
2022/08/30 13:00:06;;;;;;;4.83;4.30;;;30.80;66.50;;;;;;5030104;28;20439;-78